Time;durP1;ratioP1;P1;durP2;ratioP2;P2;SDS_P1;SDS_P2;PMS_P1;PMS_P2;Temp;Humidity;BMP_temperature;BMP_pressure;BME280_temperature;BME280_humidity;BME280_pressure;Samples;Min_cycle;Max_cycle;Signal;HPM_P1;HPM_P2
2022/12/20 00:02:14;;;;;;;;;;;;;;;;;;5113047;28;1967;-68
2022/12/20 00:04:40;;;;;;;;;;;;;;;;;;5111147;28;1249;-66
2022/12/20 00:07:05;;;;;;;;;;;;;;;;;;5111194;28;1380;-66
2022/12/20 00:09:30;;;;;;;;;;;;;;;;;;5111092;28;1209;-67
2022/12/20 00:11:55;;;;;;;;;;;;;;;;;;5094248;28;1291;-67
2022/12/20 00:14:21;;;;;;;;;;;;;;;;;;5111337;28;1260;-68
2022/12/20 00:16:46;;;;;;;;;;;;;;;;;;5095035;28;1194;-68
2022/12/20 00:19:11;;;;;;;;;;;;;;;;;;5111954;28;1249;-67
2022/12/20 00:21:37;;;;;;;;;;;;;;;;;;5113105;28;1905;-68
2022/12/20 00:24:03;;;;;;;;;;;;;;;;;;5113164;28;876;-67
2022/12/20 00:26:30;;;;;;;;;;;;;;;;;;5111734;28;1182;-68
2022/12/20 00:28:56;;;;;;;;;;;;;;;;;;5112441;28;820;-68
2022/12/20 00:31:22;;;;;;;;;;;;;;;;;;5112460;28;797;-67
2022/12/20 00:33:48;;;;;;;;;;;;;;;;;;5111962;28;962;-67
2022/12/20 00:36:14;;;;;;;;;;;;;;;;;;5112703;28;812;-67
2022/12/20 00:38:40;;;;;;;;;;;;;;;;;;5111595;28;915;-68
2022/12/20 00:41:06;;;;;;;;;;;;;;;;;;5110400;28;1908;-69
2022/12/20 00:43:32;;;;;;;;;;;;;;;;;;5112027;28;828;-68
2022/12/20 00:45:58;;;;;;;;;;;;;;;;;;5110196;28;1452;-67
2022/12/20 00:48:24;;;;;;;;;;;;;;;;;;5093903;28;1198;-67
2022/12/20 00:50:49;;;;;;;;;;;;;;;;;;5110201;28;1265;-67
2022/12/20 00:53:14;;;;;;;;;;;;;;;;;;5111960;28;837;-67
2022/12/20 00:55:43;;;;;;;;;;;;;;;;;;5111604;28;967;-68
2022/12/20 00:58:09;;;;;;;;;;;;;;;;;;5111789;28;851;-67
2022/12/20 01:00:34;;;;;;;;;;;;;;;;;;5111365;28;1956;-67
2022/12/20 01:02:59;;;;;;;;;;;;;;;;;;5093741;28;1259;-67
2022/12/20 01:05:25;;;;;;;;;;;;;;;;;;5111388;28;828;-69
2022/12/20 01:07:50;;;;;;;;;;;;;;;;;;5111249;27;891;-68
2022/12/20 01:10:16;;;;;;;;;;;;;;;;;;5110239;28;1130;-66
2022/12/20 01:12:42;;;;;;;;;;;;;;;;;;5109869;28;1332;-69
2022/12/20 01:15:08;;;;;;;;;;;;;;;;;;5111844;28;879;-69
2022/12/20 01:17:33;;;;;;;;;;;;;;;;;;5108566;28;891;-68
2022/12/20 01:19:59;;;;;;;;;;;;;;;;;;5093137;28;1178;-69
2022/12/20 01:22:24;;;;;;;;;;;;;;;;;;5110204;28;1987;-69
2022/12/20 01:24:49;;;;;;;;;;;;;;;;;;5111538;28;944;-69
2022/12/20 01:27:14;;;;;;;;;;;;;;;;;;5109859;28;1217;-68
2022/12/20 01:29:40;;;;;;;;;;;;;;;;;;5110665;28;1064;-69
2022/12/20 01:32:05;;;;;;;;;;;;;;;;;;5111110;28;852;-67
2022/12/20 01:34:30;;;;;;;;;;;;;;;;;;5110738;28;868;-67
2022/12/20 01:36:56;;;;;;;;;;;;;;;;;;5092892;28;1338;-67
2022/12/20 01:39:21;;;;;;;;;;;;;;;;;;5109738;28;1242;-67
2022/12/20 01:41:47;;;;;;;;;;;;;;;;;;5109690;28;1901;-67
2022/12/20 01:44:15;;;;;;;;;;;;;;;;;;5110616;28;797;-67
2022/12/20 01:46:40;;;;;;;;;;;;;;;;;;5109626;28;1244;-67
2022/12/20 01:49:21;;;;;;;;;;;;;;;;;;5111005;28;844;-67
2022/12/20 01:51:51;;;;;;;;;;;;;;;;;;5111489;28;896;-67
2022/12/20 01:54:26;;;;;;;;;;;;;;;;;;5112049;28;1039;-67
2022/12/20 01:56:54;;;;;;;;;;;;;;;;;;5112375;28;982;-67
2022/12/20 01:59:19;;;;;;;;;;;;;;;;;;5111838;28;844;-67
2022/12/20 02:01:45;;;;;;;;;;;;;;;;;;5093135;28;1977;-67
2022/12/20 02:04:10;;;;;;;;;;;;;;;;;;5110713;28;1197;-67
2022/12/20 02:06:36;;;;;;;;;;;;;;;;;;5109972;28;1169;-67
2022/12/20 02:09:02;;;;;;;;;;;;;;;;;;5110178;28;1336;-68
2022/12/20 02:11:46;;;;;;;;;;;;;;;;;;5111532;28;809;-67
2022/12/20 02:14:14;;;;;;;;;;;;;;;;;;5111596;28;770;-68
2022/12/20 02:17:03;;;;;;;;;;;;;;;;;;5109973;28;1112;-68
2022/12/20 02:19:47;;;;;;;;;;;;;;;;;;5104958;28;1273;-68
2022/12/20 02:22:22;;;;;;;;;;;;;;;;;;5110677;28;1910;-69
2022/12/20 02:24:47;;;;;;;;;;;;;;;;;;5110375;28;896;-68
2022/12/20 02:27:30;;;;;;;;;;;;;;;;;;5111184;28;816;-68
2022/12/20 02:29:59;;;;;;;;;;;;;;;;;;5111852;28;1287;-68
2022/12/20 02:32:27;;;;;;;;;;;;;;;;;;5113015;28;1276;-67
2022/12/20 02:34:56;;;;;;;;;;;;;;;;;;5114153;28;812;-68
2022/12/20 02:37:22;;;;;;;;;;;;;;;;;;5113303;28;1170;-68
2022/12/20 02:39:47;;;;;;;;;;;;;;;;;;5113824;28;876;-68
2022/12/20 02:42:14;;;;;;;;;;;;;;;;;;5114804;28;1969;-68
2022/12/20 02:47:57;;;;;;;;;;;;;;;;;;5113952;28;714;-68
2022/12/20 02:50:25;;;;;;;;;;;;;;;;;;5104412;28;1203;-68
2022/12/20 02:52:51;;;;;;;;;;;;;;;;;;5113928;28;856;-67
2022/12/20 02:55:17;;;;;;;;;;;;;;;;;;5112492;28;896;-69
2022/12/20 02:57:53;;;;;;;;;;;;;;;;;;5113886;28;950;-67
2022/12/20 03:00:20;;;;;;;;;;;;;;;;;;5112329;28;1214;-67
2022/12/20 03:05:33;;;;;;;;;;;;;;;;;;5113752;28;655;-67
2022/12/20 03:07:58;;;;;;;;;;;;;;;;;;5114161;28;812;-67
2022/12/20 03:10:24;;;;;;;;;;;;;;;;;;5112484;28;1189;-67
2022/12/20 03:12:49;;;;;;;;;;;;;;;;;;5112110;28;1290;-67
2022/12/20 03:15:14;;;;;;;;;;;;;;;;;;5112494;28;1309;-67
2022/12/20 03:17:39;;;;;;;;;;;;;;;;;;5095631;28;1146;-67
2022/12/20 03:20:06;;;;;;;;;;;;;;;;;;5113658;28;986;-67
2022/12/20 03:22:32;;;;;;;;;;;;;;;;;;5112053;28;1906;-68
2022/12/20 03:24:57;;;;;;;;;;;;;;;;;;5112058;28;1542;-67
2022/12/20 03:27:23;;;;;;;;;;;;;;;;;;5113606;28;958;-68
2022/12/20 03:29:48;;;;;;;;;;;;;;;;;;5094837;28;1210;-68
2022/12/20 03:32:14;;;;;;;;;;;;;;;;;;5111923;28;1322;-67
2022/12/20 03:34:39;;;;;;;;;;;;;;;;;;5113362;28;765;-68
2022/12/20 03:37:05;;;;;;;;;;;;;;;;;;5096222;28;1206;-68
2022/12/20 03:39:30;;;;;;;;;;;;;;;;;;5095057;28;1352;-68
2022/12/20 03:41:55;;;;;;;;;;;;;;;;;;5113570;28;1951;-68
2022/12/20 03:44:20;;;;;;;;;;;;;;;;;;5112630;28;1210;-68
2022/12/20 03:46:46;;;;;;;;;;;;;;;;;;5095228;28;1305;-68
2022/12/20 03:49:11;;;;;;;;;;;;;;;;;;5113634;28;903;-68
2022/12/20 03:51:36;;;;;;;;;;;;;;;;;;5094831;28;1195;-68
2022/12/20 03:54:02;;;;;;;;;;;;;;;;;;5111710;28;1153;-67
2022/12/20 03:56:28;;;;;;;;;;;;;;;;;;5111852;28;1471;-68
2022/12/20 03:58:53;;;;;;;;;;;;;;;;;;5094406;28;1310;-68
2022/12/20 04:01:20;;;;;;;;;;;;;;;;;;5112146;28;1905;-67
2022/12/20 04:03:45;;;;;;;;;;;;;;;;;;5113232;28;914;-68
2022/12/20 04:06:11;;;;;;;;;;;;;;;;;;5111530;28;1122;-68
2022/12/20 04:08:36;;;;;;;;;;;;;;;;;;5094277;28;1245;-68
2022/12/20 04:11:17;;;;;;;;;;;;;;;;;;5112701;28;996;-68
2022/12/20 04:13:51;;;;;;;;;;;;;;;;;;5112759;28;880;-67
2022/12/20 04:16:18;;;;;;;;;;;;;;;;;;5112860;27;809;-68
2022/12/20 04:18:44;;;;;;;;;;;;;;;;;;5110650;28;1217;-68
2022/12/20 04:21:10;;;;;;;;;;;;;;;;;;5112908;28;1967;-67
2022/12/20 04:23:36;;;;;;;;;;;;;;;;;;5110036;28;1369;-67
2022/12/20 04:26:03;;;;;;;;;;;;;;;;;;5112112;28;872;-68
2022/12/20 04:28:28;;;;;;;;;;;;;;;;;;5110672;28;1296;-68
2022/12/20 04:30:54;;;;;;;;;;;;;;;;;;5111847;28;888;-68
2022/12/20 04:33:19;;;;;;;;;;;;;;;;;;5093861;28;1297;-68
2022/12/20 04:35:45;;;;;;;;;;;;;;;;;;5110207;28;1181;-67
2022/12/20 04:38:10;;;;;;;;;;;;;;;;;;5110292;28;1268;-68
2022/12/20 04:40:35;;;;;;;;;;;;;;;;;;5110954;28;1965;-67
2022/12/20 04:43:00;;;;;;;;;;;;;;;;;;5093582;28;1365;-68
2022/12/20 04:45:26;;;;;;;;;;;;;;;;;;5111286;28;880;-68
2022/12/20 04:47:51;;;;;;;;;;;;;;;;;;5093055;28;1345;-67
2022/12/20 04:50:17;;;;;;;;;;;;;;;;;;5110535;28;1375;-68
2022/12/20 04:55:27;;;;;;;;;;;;;;;;;;5111749;28;635;-68
2022/12/20 04:57:52;;;;;;;;;;;;;;;;;;5093329;28;1218;-69
2022/12/20 05:00:17;;;;;;;;;;;;;;;;;;5092934;28;1324;-67
2022/12/20 05:02:43;;;;;;;;;;;;;;;;;;5110736;28;1968;-67
2022/12/20 05:05:08;;;;;;;;;;;;;;;;;;5105236;28;1285;-68
2022/12/20 05:07:33;;;;;;;;;;;;;;;;;;5073026;28;1408;-68
2022/12/20 05:09:59;;;;;;;;;;;;;;;;;;5074123;28;1307;-68
2022/12/20 05:12:24;;;;;;;;;;;;;;;;;;5090623;28;1186;-67
2022/12/20 05:14:49;;;;;;;;;;;;;;;;;;5091476;28;896;-68
2022/12/20 05:17:14;;;;;;;;;;;;;;;;;;5091062;28;1182;-68
2022/12/20 05:19:40;;;;;;;;;;;;;;;;;;5089421;28;991;-68
2022/12/20 05:27:33;;;;;;;;;;;;;;;;;;5089525;28;702;-67
2022/12/20 05:29:58;;;;;;;;;;;;;;;;;;5091318;28;884;-68
2022/12/20 05:32:24;;;;;;;;;;;;;;;;;;5072847;28;1238;-68
2022/12/20 05:34:49;;;;;;;;;;;;;;;;;;5089102;28;1162;-67
2022/12/20 05:37:14;;;;;;;;;;;;;;;;;;5089451;28;1191;-67
2022/12/20 05:39:39;;;;;;;;;;;;;;;;;;5089341;28;1058;-66
2022/12/20 05:42:05;;;;;;;;;;;;;;;;;;5089434;28;1961;-67
2022/12/20 05:44:30;;;;;;;;;;;;;;;;;;5089292;28;1295;-68
2022/12/20 05:46:55;;;;;;;;;;;;;;;;;;5089442;28;1242;-67
2022/12/20 05:49:20;;;;;;;;;;;;;;;;;;5088930;28;1019;-68
2022/12/20 05:51:46;;;;;;;;;;;;;;;;;;5090558;28;1057;-67
2022/12/20 05:54:11;;;;;;;;;;;;;;;;;;5089832;28;983;-68
2022/12/20 05:56:36;;;;;;;;;;;;;;;;;;5089964;28;982;-67
2022/12/20 05:59:01;;;;;;;;;;;;;;;;;;5091069;28;908;-68
2022/12/20 06:01:27;;;;;;;;;;;;;;;;;;5072108;28;1961;-67
2022/12/20 06:03:52;;;;;;;;;;;;;;;;;;5073229;28;1183;-68
2022/12/20 06:06:17;;;;;;;;;;;;;;;;;;5076917;28;1239;-68
2022/12/20 06:08:42;;;;;;;;;;;;;;;;;;5092824;28;1254;-68
2022/12/20 06:11:08;;;;;;;;;;;;;;;;;;5093692;28;731;-67
2022/12/20 06:13:33;;;;;;;;;;;;;;;;;;5094472;28;975;-68
2022/12/20 06:16:01;;;;;;;;;;;;;;;;;;5092969;28;856;-68
2022/12/20 06:18:27;;;;;;;;;;;;;;;;;;5092975;28;1138;-67
2022/12/20 06:20:52;;;;;;;;;;;;;;;;;;5094176;28;1906;-67
2022/12/20 06:23:17;;;;;;;;;;;;;;;;;;5093227;28;758;-67
2022/12/20 06:25:43;;;;;;;;;;;;;;;;;;5092320;28;1340;-67
2022/12/20 06:28:09;;;;;;;;;;;;;;;;;;5094175;28;899;-67
2022/12/20 06:30:34;;;;;;;;;;;;;;;;;;5093862;28;991;-67
2022/12/20 06:32:59;;;;;;;;;;;;;;;;;;5093935;28;913;-67
2022/12/20 06:35:25;;;;;;;;;;;;;;;;;;5093264;28;1220;-67
2022/12/20 06:37:50;;;;;;;;;;;;;;;;;;5092074;28;1235;-67
2022/12/20 06:40:15;;;;;;;;;;;;;;;;;;5093789;28;864;-67
2022/12/20 06:42:41;;;;;;;;;;;;;;;;;;5094432;28;1977;-67
2022/12/20 06:45:07;;;;;;;;;;;;;;;;;;5093346;28;1288;-67
2022/12/20 06:47:32;;;;;;;;;;;;;;;;;;5093801;28;1089;-67
2022/12/20 06:49:57;;;;;;;;;;;;;;;;;;5075788;28;1361;-67
2022/12/20 06:52:23;;;;;;;;;;;;;;;;;;5092874;28;904;-67
2022/12/20 06:54:48;;;;;;;;;;;;;;;;;;5091492;28;1297;-67
2022/12/20 06:57:13;;;;;;;;;;;;;;;;;;5093961;28;888;-68
2022/12/20 06:59:39;;;;;;;;;;;;;;;;;;5093077;28;844;-67
2022/12/20 07:02:04;;;;;;;;;;;;;;;;;;5092364;28;1897;-67
2022/12/20 07:04:29;;;;;;;;;;;;;;;;;;5087647;28;1231;-68
2022/12/20 07:06:56;;;;;;;;;;;;;;;;;;5072450;28;1440;-68
2022/12/20 07:09:21;;;;;;;;;;;;;;;;;;5103837;28;1155;-67
2022/12/20 07:11:46;;;;;;;;;;;;;;;;;;5093695;28;1199;-68
2022/12/20 07:14:11;;;;;;;;;;;;;;;;;;5089649;28;1165;-70
2022/12/20 07:16:37;;;;;;;;;;;;;;;;;;5080507;28;1219;-69
2022/12/20 07:19:02;;;;;;;;;;;;;;;;;;5105881;28;1278;-70
2022/12/20 07:21:27;;;;;;;;;;;;;;;;;;5095487;28;1914;-69
2022/12/20 07:23:54;;;;;;;;;;;;;;;;;;5076413;28;1254;-69
2022/12/20 07:26:19;;;;;;;;;;;;;;;;;;5100783;28;1080;-69
2022/12/20 07:28:44;;;;;;;;;;;;;;;;;;5101563;28;1218;-69
2022/12/20 07:31:09;;;;;;;;;;;;;;;;;;5086794;28;1317;-69
2022/12/20 07:33:36;;;;;;;;;;;;;;;;;;5090598;28;1160;-69
2022/12/20 07:36:01;;;;;;;;;;;;;;;;;;5083964;28;1226;-69
2022/12/20 07:38:26;;;;;;;;;;;;;;;;;;5100514;28;1211;-69
2022/12/20 07:40:51;;;;;;;;;;;;;;;;;;5109052;28;1898;-67
2022/12/20 07:43:17;;;;;;;;;;;;;;;;;;5109797;28;1162;-68
2022/12/20 07:45:42;;;;;;;;;;;;;;;;;;5092510;28;1249;-67
2022/12/20 07:48:07;;;;;;;;;;;;;;;;;;5110492;28;1213;-67
2022/12/20 07:50:34;;;;;;;;;;;;;;;;;;5111311;28;1182;-68
2022/12/20 07:53:01;;;;;;;;;;;;;;;;;;5111397;28;1143;-67
2022/12/20 07:55:30;;;;;;;;;;;;;;;;;;5093952;28;1601;-67
2022/12/20 07:57:59;;;;;;;;;;;;;;;;;;5108401;28;1227;-67
2022/12/20 08:00:24;;;;;;;;;;;;;;;;;;5112557;28;959;-68
2022/12/20 08:02:54;;;;;;;;;;;;;;;;;;5112187;28;1901;-67
2022/12/20 08:05:20;;;;;;;;;;;;;;;;;;5112173;28;1190;-68
2022/12/20 08:07:46;;;;;;;;;;;;;;;;;;5113046;28;840;-68
2022/12/20 08:10:12;;;;;;;;;;;;;;;;;;5114128;28;875;-67
2022/12/20 08:12:38;;;;;;;;;;;;;;;;;;5113498;28;887;-67
2022/12/20 08:15:04;;;;;;;;;;;;;;;;;;5113214;28;942;-68
2022/12/20 08:17:29;;;;;;;;;;;;;;;;;;5111939;28;1312;-67
2022/12/20 08:19:56;;;;;;;;;;;;;;;;;;5111130;28;1207;-67
2022/12/20 08:22:21;;;;;;;;;;;;;;;;;;5110172;28;1909;-67
2022/12/20 08:24:47;;;;;;;;;;;;;;;;;;5110552;28;1348;-67
2022/12/20 08:27:14;;;;;;;;;;;;;;;;;;5111742;28;900;-68
2022/12/20 08:29:39;;;;;;;;;;;;;;;;;;5093409;28;1389;-67
2022/12/20 08:32:04;;;;;;;;;;;;;;;;;;5110844;28;1254;-73
2022/12/20 08:34:30;;;;;;;;;;;;;;;;;;5110407;28;1131;-72
2022/12/20 08:36:55;;;;;;;;;;;;;;;;;;5110594;28;1202;-73
2022/12/20 08:39:20;;;;;;;;;;;;;;;;;;5111856;28;915;-73
2022/12/20 08:41:46;;;;;;;;;;;;;;;;;;5109770;28;1889;-73
2022/12/20 08:44:12;;;;;;;;;;;;;;;;;;5110654;28;1107;-72
2022/12/20 08:46:38;;;;;;;;;;;;;;;;;;5093165;28;1370;-73
2022/12/20 08:49:03;;;;;;;;;;;;;;;;;;5111992;28;851;-73
2022/12/20 08:51:29;;;;;;;;;;;;;;;;;;5112024;28;911;-73
2022/12/20 08:53:54;;;;;;;;;;;;;;;;;;5109645;28;1198;-73
2022/12/20 08:56:19;;;;;;;;;;;;;;;;;;5110407;28;943;-67
2022/12/20 08:58:44;;;;;;;;;;;;;;;;;;5110815;28;848;-67
2022/12/20 09:01:11;;;;;;;;;;;;;;;;;;5111901;28;1965;-67
2022/12/20 09:03:37;;;;;;;;;;;;;;;;;;5109795;28;1076;-67
2022/12/20 09:06:11;;;;;;;;;;;;;;;;;;5108968;28;1312;-67
2022/12/20 09:08:37;;;;;;;;;;;;;;;;;;5111211;28;793;-67
2022/12/20 09:11:08;;;;;;;;;;;;;;;;;;5110021;28;1151;-72
2022/12/20 09:13:34;;;;;;;;;;;;;;;;;;5109973;28;1205;-72
2022/12/20 09:16:00;;;;;;;;;;;;;;;;;;5109213;28;944;-72
2022/12/20 09:18:26;;;;;;;;;;;;;;;;;;5111333;28;800;-72
2022/12/20 09:20:51;;;;;;;;;;;;;;;;;;5109191;28;1977;-72
2022/12/20 09:23:16;;;;;;;;;;;;;;;;;;5109919;28;912;-72
2022/12/20 09:25:42;;;;;;;;;;;;;;;;;;5108972;28;1277;-73
2022/12/20 09:28:07;;;;;;;;;;;;;;;;;;5092879;28;1248;-72
2022/12/20 09:30:33;;;;;;;;;;;;;;;;;;5111049;28;863;-72
2022/12/20 09:32:58;;;;;;;;;;;;;;;;;;5110251;28;823;-71
2022/12/20 09:35:23;;;;;;;;;;;;;;;;;;5110814;28;879;-71
2022/12/20 09:37:49;;;;;;;;;;;;;;;;;;5108572;28;951;-71
2022/12/20 09:40:19;;;;;;;;;;;;;;;;;;5110661;28;812;-66
2022/12/20 09:42:45;;;;;;;;;;;;;;;;;;5110443;28;1898;-66
2022/12/20 09:45:15;;;;;;;;;;;;;;;;;;5111602;28;928;-67
2022/12/20 09:47:41;;;;;;;;;;;;;;;;;;5111669;28;947;-67
2022/12/20 09:50:06;;;;;;;;;;;;;;;;;;5110734;28;966;-67
2022/12/20 09:52:46;;;;;;;;;;;;;;;;;;5111926;28;1006;-67
2022/12/20 09:55:12;;;;;;;;;;;;;;;;;;5112000;28;923;-67
2022/12/20 09:57:43;;;;;;;;;;;;;;;;;;5109492;28;1511;-67
2022/12/20 10:00:16;;;;;;;;;;;;;;;;;;5109900;28;1257;-67
2022/12/20 10:02:41;;;;;;;;;;;;;;;;;;5109787;28;1955;-67
2022/12/20 10:05:18;;;;;;;;;;;;;;;;;;5110642;28;931;-67
2022/12/20 10:08:03;;;;;;;;;;;;;;;;;;5108601;28;1336;-67
2022/12/20 10:10:47;;;;;;;;;;;;;;;;;;5110480;28;895;-67
2022/12/20 10:13:12;;;;;;;;;;;;;;;;;;5110559;28;836;-67
2022/12/20 10:15:49;;;;;;;;;;;;;;;;;;5110673;28;852;-67
2022/12/20 10:18:14;;;;;;;;;;;;;;;;;;5110631;28;1069;-67
2022/12/20 10:20:43;;;;;;;;;;;;;;;;;;5108560;28;1452;-67
2022/12/20 10:23:31;;;;;;;;;;;;;;;;;;5109453;28;1175;-67
2022/12/20 10:25:57;;;;;;;;;;;;;;;;;;5099822;28;1301;-67
2022/12/20 10:28:27;;;;;;;;;;;;;;;;;;5111022;28;821;-67
2022/12/20 10:30:53;;;;;;;;;;;;;;;;;;5108006;28;1214;-67
2022/12/20 10:33:19;;;;;;;;;;;;;;;;;;5110609;28;962;-67
2022/12/20 10:35:45;;;;;;;;;;;;;;;;;;5109654;28;829;-67
2022/12/20 10:38:11;;;;;;;;;;;;;;;;;;5110516;28;879;-67
2022/12/20 10:40:45;;;;;;;;;;;;;;;;;;5110513;28;848;-67
2022/12/20 10:43:18;;;;;;;;;;;;;;;;;;5109161;28;1217;-68
2022/12/20 10:45:45;;;;;;;;;;;;;;;;;;5109800;28;952;-68
2022/12/20 10:48:23;;;;;;;;;;;;;;;;;;5109038;28;1194;-68
2022/12/20 10:50:56;;;;;;;;;;;;;;;;;;5111083;28;1322;-68
2022/12/20 10:53:23;;;;;;;;;;;;;;;;;;5115414;28;884;-68
2022/12/20 10:55:49;;;;;;;;;;;;;;;;;;5114444;28;844;-68
2022/12/20 10:58:31;;;;;;;;;;;;;;;;;;5113676;28;1221;-67
2022/12/20 11:01:17;;;;;;;;;;;;;;;;;;5113868;28;1890;-67
2022/12/20 11:03:48;;;;;;;;;;;;;;;;;;5114133;28;1277;-67
2022/12/20 11:06:14;;;;;;;;;;;;;;;;;;5113804;28;1238;-67
2022/12/20 11:08:40;;;;;;;;;;;;;;;;;;5112986;28;1202;-67
2022/12/20 11:11:15;;;;;;;;;;;;;;;;;;5114939;28;895;-67
2022/12/20 11:13:41;;;;;;;;;;;;;;;;;;5113615;28;1404;-67
2022/12/20 11:16:21;;;;;;;;;;;;;;;;;;5113718;28;1443;-67
2022/12/20 11:18:51;;;;;;;;;;;;;;;;;;5113622;28;907;-67
2022/12/20 11:21:36;;;;;;;;;;;;;;;;;;5112774;28;1934;-67
2022/12/20 11:24:16;;;;;;;;;;;;;;;;;;5113295;28;840;-67
2022/12/20 11:26:54;;;;;;;;;;;;;;;;;;5112362;28;891;-67
2022/12/20 11:29:38;;;;;;;;;;;;;;;;;;5113889;28;1033;-67
2022/12/20 11:32:06;;;;;;;;;;;;;;;;;;5112848;28;800;-67
2022/12/20 11:34:40;;;;;;;;;;;;;;;;;;5113351;28;848;-67
2022/12/20 11:37:18;;;;;;;;;;;;;;;;;;5113122;28;843;-67
2022/12/20 11:39:43;;;;;;;;;;;;;;;;;;5112350;28;939;-66
2022/12/20 11:42:14;;;;;;;;;;;;;;;;;;5113694;28;1968;-67
2022/12/20 11:44:51;;;;;;;;;;;;;;;;;;5112978;28;994;-67
2022/12/20 11:47:19;;;;;;;;;;;;;;;;;;5113276;28;820;-66
2022/12/20 11:49:48;;;;;;;;;;;;;;;;;;5111163;28;1185;-67
2022/12/20 11:52:25;;;;;;;;;;;;;;;;;;5112446;28;879;-67
2022/12/20 11:55:19;;;;;;;;;;;;;;;;;;5110769;28;1220;-67
2022/12/20 11:58:00;;;;;;;;;;;;;;;;;;5108675;28;1234;-68
2022/12/20 12:00:25;;;;;;;;;;;;;;;;;;5111131;28;1226;-67
2022/12/20 12:03:09;;;;;;;;;;;;;;;;;;5109740;28;1967;-68
2022/12/20 12:05:43;;;;;;;;;;;;;;;;;;5112800;28;825;-68
2022/12/20 12:08:13;;;;;;;;;;;;;;;;;;5112786;28;746;-68
2022/12/20 12:10:41;;;;;;;;;;;;;;;;;;5112571;28;820;-68
2022/12/20 12:13:06;;;;;;;;;;;;;;;;;;5110569;28;1304;-67
2022/12/20 12:15:35;;;;;;;;;;;;;;;;;;5112784;28;979;-67
2022/12/20 12:18:09;;;;;;;;;;;;;;;;;;5111717;27;757;-67
2022/12/20 12:20:50;;;;;;;;;;;;;;;;;;5111018;28;1331;-67
2022/12/20 12:23:15;;;;;;;;;;;;;;;;;;5112375;28;804;-67
2022/12/20 12:25:40;;;;;;;;;;;;;;;;;;5110575;28;1103;-67
2022/12/20 12:28:06;;;;;;;;;;;;;;;;;;5112297;28;848;-68
2022/12/20 12:30:37;;;;;;;;;;;;;;;;;;5112758;28;904;-67
2022/12/20 12:33:05;;;;;;;;;;;;;;;;;;5113255;28;896;-67
2022/12/20 12:35:54;;;;;;;;;;;;;;;;;;5112698;28;864;-67
2022/12/20 12:38:19;;;;;;;;;;;;;;;;;;5113142;28;907;-67
2022/12/20 12:40:44;;;;;;;;;;;;;;;;;;5112275;28;899;-67
2022/12/20 12:43:22;;;;;;;;;;;;;;;;;;5112628;28;1894;-67
2022/12/20 12:45:50;;;;;;;;;;;;;;;;;;5111674;28;1065;-67
2022/12/20 12:48:18;;;;;;;;;;;;;;;;;;5111812;28;934;-67
2022/12/20 12:50:44;;;;;;;;;;;;;;;;;;5111458;28;879;-67
2022/12/20 12:53:16;;;;;;;;;;;;;;;;;;5110451;28;1355;-68
2022/12/20 12:55:49;;;;;;;;;;;;;;;;;;5111775;27;848;-67
2022/12/20 12:58:23;;;;;;;;;;;;;;;;;;5111363;28;859;-68
2022/12/20 13:01:08;;;;;;;;;;;;;;;;;;5111442;28;1901;-68
2022/12/20 13:03:34;;;;;;;;;;;;;;;;;;5111714;28;1079;-68
2022/12/20 13:06:19;;;;;;;;;;;;;;;;;;5111344;28;876;-67
2022/12/20 13:09:02;;;;;;;;;;;;;;;;;;5111179;28;985;-66
2022/12/20 13:11:28;;;;;;;;;;;;;;;;;;5110321;28;1230;-67
2022/12/20 13:14:21;;;;;;;;;;;;;;;;;;5109892;28;1230;-68
2022/12/20 13:16:47;;;;;;;;;;;;;;;;;;5094926;28;1119;-73
2022/12/20 13:19:32;;;;;;;;;;;;;;;;;;5109955;28;1359;-73
2022/12/20 13:22:15;;;;;;;;;;;;;;;;;;5110408;28;1905;-73
2022/12/20 13:24:55;;;;;;;;;;;;;;;;;;5110953;28;848;-73
2022/12/20 13:27:36;;;;;;;;;;;;;;;;;;5110927;28;827;-73
2022/12/20 13:30:04;;;;;;;;;;;;;;;;;;5109327;28;1206;-73
2022/12/20 13:32:47;;;;;;;;;;;;;;;;;;5111156;28;875;-74
2022/12/20 13:35:25;;;;;;;;;;;;;;;;;;5111254;28;946;-73
2022/12/20 13:37:56;;;;;;;;;;;;;;;;;;5109313;28;1155;-73
2022/12/20 13:40:41;;;;;;;;;;;;;;;;;;5110619;28;828;-73
2022/12/20 13:43:19;;;;;;;;;;;;;;;;;;5098130;28;1898;-74
2022/12/20 13:45:46;;;;;;;;;;;;;;;;;;5110277;28;920;-73
2022/12/20 13:48:14;;;;;;;;;;;;;;;;;;5109295;28;1376;-74
2022/12/20 13:50:46;;;;;;;;;;;;;;;;;;5107780;28;1229;-74
2022/12/20 13:53:37;;;;;;;;;;;;;;;;;;5111469;28;833;-74
2022/12/20 13:56:31;;;;;;;;;;;;;;;;;;5107353;28;1317;-73
2022/12/20 13:58:57;;;;;;;;;;;;;;;;;;5111004;28;765;-73
2022/12/20 14:01:24;;;;;;;;;;;;;;;;;;5109153;28;1971;-73
2022/12/20 14:03:50;;;;;;;;;;;;;;;;;;5110025;28;1097;-73
2022/12/20 14:06:18;;;;;;;;;;;;;;;;;;5109120;28;962;-73
2022/12/20 14:08:45;;;;;;;;;;;;;;;;;;5110167;28;959;-73
2022/12/20 14:11:17;;;;;;;;;;;;;;;;;;5110814;28;879;-73
2022/12/20 14:13:50;;;;;;;;;;;;;;;;;;5108608;28;1306;-73
2022/12/20 14:16:16;;;;;;;;;;;;;;;;;;5108859;28;1382;-73
2022/12/20 14:18:47;;;;;;;;;;;;;;;;;;5108576;28;1371;-73
2022/12/20 14:21:16;;;;;;;;;;;;;;;;;;5110301;28;1955;-73
2022/12/20 14:23:44;;;;;;;;;;;;;;;;;;5110321;28;825;-73
2022/12/20 14:26:13;;;;;;;;;;;;;;;;;;5112646;28;1344;-73
2022/12/20 14:28:40;;;;;;;;;;;;;;;;;;5114442;27;844;-73
2022/12/20 14:31:06;;;;;;;;;;;;;;;;;;5114259;28;871;-73
2022/12/20 14:33:39;;;;;;;;;;;;;;;;;;5114068;28;832;-73
2022/12/20 14:36:10;;;;;;;;;;;;;;;;;;5114566;28;896;-73
2022/12/20 14:38:43;;;;;;;;;;;;;;;;;;5113066;28;1165;-68
2022/12/20 14:41:27;;;;;;;;;;;;;;;;;;5114066;28;1889;-68
2022/12/20 14:43:56;;;;;;;;;;;;;;;;;;5112328;28;1192;-67
2022/12/20 14:46:22;;;;;;;;;;;;;;;;;;5112664;28;1166;-67
2022/12/20 14:48:47;;;;;;;;;;;;;;;;;;5112110;28;1257;-67
2022/12/20 14:51:19;;;;;;;;;;;;;;;;;;5114002;28;868;-67
2022/12/20 14:53:44;;;;;;;;;;;;;;;;;;5113823;28;860;-68
2022/12/20 14:56:16;;;;;;;;;;;;;;;;;;5112560;28;1291;-67
2022/12/20 14:58:41;;;;;;;;;;;;;;;;;;5113540;28;899;-67
2022/12/20 15:01:16;;;;;;;;;;;;;;;;;;5113708;28;1894;-67
2022/12/20 15:04:10;;;;;;;;;;;;;;;;;;5113474;28;1089;-67
2022/12/20 15:06:35;;;;;;;;;;;;;;;;;;5098574;28;1162;-67
2022/12/20 15:09:01;;;;;;;;;;;;;;;;;;5113422;28;843;-68
2022/12/20 15:11:26;;;;;;;;;;;;;;;;;;5113364;28;939;-68
2022/12/20 15:13:53;;;;;;;;;;;;;;;;;;5112965;28;1082;-68
2022/12/20 15:16:26;;;;;;;;;;;;;;;;;;5112669;28;844;-67
2022/12/20 15:18:53;;;;;;;;;;;;;;;;;;5114046;28;891;-67
2022/12/20 15:21:21;;;;;;;;;;;;;;;;;;5114061;28;1917;-68
2022/12/20 15:23:51;;;;;;;;;;;;;;;;;;5112150;28;1261;-67
2022/12/20 15:26:17;;;;;;;;;;;;;;;;;;5113340;27;829;-68
2022/12/20 15:28:43;;;;;;;;;;;;;;;;;;5111373;28;891;-68
2022/12/20 15:31:09;;;;;;;;;;;;;;;;;;5113652;28;828;-68
2022/12/20 15:33:34;;;;;;;;;;;;;;;;;;5113222;28;1014;-68
2022/12/20 15:35:59;;;;;;;;;;;;;;;;;;5111888;28;824;-67
2022/12/20 15:38:25;;;;;;;;;;;;;;;;;;5112778;28;876;-67
2022/12/20 15:40:53;;;;;;;;;;;;;;;;;;5110881;28;820;-68
2022/12/20 15:43:19;;;;;;;;;;;;;;;;;;5111532;28;1118;-67
2022/12/20 15:45:46;;;;;;;;;;;;;;;;;;5112506;28;924;-67
2022/12/20 15:48:15;;;;;;;;;;;;;;;;;;5112014;28;1283;-67
2022/12/20 15:50:48;;;;;;;;;;;;;;;;;;5112588;28;801;-68
2022/12/20 15:53:15;;;;;;;;;;;;;;;;;;5112793;27;843;-67
2022/12/20 15:55:40;;;;;;;;;;;;;;;;;;5112438;27;797;-67
2022/12/20 15:58:06;;;;;;;;;;;;;;;;;;5111734;28;1185;-72
2022/12/20 16:00:31;;;;;;;;;;;;;;;;;;5112902;28;816;-72
2022/12/20 16:02:58;;;;;;;;;;;;;;;;;;5111949;28;1897;-72
2022/12/20 16:05:23;;;;;;;;;;;;;;;;;;5112608;28;923;-72
2022/12/20 16:07:48;;;;;;;;;;;;;;;;;;5111999;28;938;-72
2022/12/20 16:10:14;;;;;;;;;;;;;;;;;;5111257;28;1260;-73
2022/12/20 16:12:40;;;;;;;;;;;;;;;;;;5112288;28;911;-72
2022/12/20 16:15:17;;;;;;;;;;;;;;;;;;5111098;28;1091;-73
2022/12/20 16:17:42;;;;;;;;;;;;;;;;;;5111712;28;943;-73
2022/12/20 16:20:08;;;;;;;;;;;;;;;;;;5112400;28;939;-73
2022/12/20 16:22:33;;;;;;;;;;;;;;;;;;5112315;28;1948;-73
2022/12/20 16:24:58;;;;;;;;;;;;;;;;;;5110663;28;1300;-73
2022/12/20 16:27:24;;;;;;;;;;;;;;;;;;5110795;28;896;-72
2022/12/20 16:29:49;;;;;;;;;;;;;;;;;;5110697;28;1287;-73
2022/12/20 16:32:16;;;;;;;;;;;;;;;;;;5112958;28;1054;-72
2022/12/20 16:34:42;;;;;;;;;;;;;;;;;;5112099;28;805;-73
2022/12/20 16:37:07;;;;;;;;;;;;;;;;;;5111447;28;1349;-73
2022/12/20 16:39:33;;;;;;;;;;;;;;;;;;5111980;28;860;-74
2022/12/20 16:41:59;;;;;;;;;;;;;;;;;;5112673;28;1897;-73
2022/12/20 16:44:24;;;;;;;;;;;;;;;;;;5112838;28;971;-73
2022/12/20 16:46:50;;;;;;;;;;;;;;;;;;5110920;28;1205;-72
2022/12/20 16:49:16;;;;;;;;;;;;;;;;;;5112653;27;837;-73
2022/12/20 16:51:43;;;;;;;;;;;;;;;;;;5112580;28;841;-73
2022/12/20 16:54:16;;;;;;;;;;;;;;;;;;5111175;28;1201;-72
2022/12/20 16:56:43;;;;;;;;;;;;;;;;;;5111595;27;934;-73
2022/12/20 16:59:08;;;;;;;;;;;;;;;;;;5093734;28;1305;-73
2022/12/20 17:01:34;;;;;;;;;;;;;;;;;;5112112;28;1899;-73
2022/12/20 17:04:00;;;;;;;;;;;;;;;;;;5111332;28;1515;-73
2022/12/20 17:06:26;;;;;;;;;;;;;;;;;;5110946;28;1035;-73
2022/12/20 17:08:51;;;;;;;;;;;;;;;;;;5111558;28;887;-74
2022/12/20 17:11:34;;;;;;;;;;;;;;;;;;5112115;27;939;-73
2022/12/20 17:14:00;;;;;;;;;;;;;;;;;;5111941;28;895;-68
2022/12/20 17:16:25;;;;;;;;;;;;;;;;;;5110452;28;836;-67
2022/12/20 17:18:52;;;;;;;;;;;;;;;;;;5109735;28;801;-68
2022/12/20 17:21:26;;;;;;;;;;;;;;;;;;5112756;28;1922;-68
2022/12/20 17:23:52;;;;;;;;;;;;;;;;;;5111543;28;789;-68
2022/12/20 17:26:22;;;;;;;;;;;;;;;;;;5111632;28;1383;-69
2022/12/20 17:28:48;;;;;;;;;;;;;;;;;;5111610;28;902;-69
2022/12/20 17:31:26;;;;;;;;;;;;;;;;;;5112354;28;860;-69
2022/12/20 17:33:51;;;;;;;;;;;;;;;;;;5112222;28;994;-67